Impacts TAF Board
For situational awareness. Not to be used for flight planning purposes.
IDs:

KDAB - Daytona Beach Intl, FL, US

Issued at 2028 UTC 21 May 2022
Updated at 2153 UTC 21 May 2022
Potential Impact None Slight Moderate High
Time2053Z 21/22Z 21/23Z 22/00Z 22/01Z 22/02Z 22/03Z 22/04Z 22/05Z 22/06Z 22/07Z 22/08Z 22/09Z 22/10Z>>
Type OBS PRVL
  [TEMP]  
PRVL
  [TEMP]  
PRVL
  [TEMP]  
PRVL
  [TEMP]  
PRVL PRVL PRVL PRVL PRVL PRVL PRVL PRVL PRVL
VIS 9 >6
  [4]  
>6
  [4]  
>6
  [4]  
>6
  [4]  
>6 >6 >6 >6 >6 >6 >6 >6 >6
CIG 130 100
  [40]  
100
  [40]  
100
  [40]  
100
  [40]  
100 200 200 200 200 200 200 200 200
Cover OVC OVC
  [BKN]  
OVC
  [BKN]  
OVC
  [BKN]  
OVC
  [BKN]  
OVC BKN BKN BKN BKN BKN BKN BKN BKN
FltCat VFR VFR
  [MVFR]  
VFR
  [MVFR]  
VFR
  [MVFR]  
VFR
  [MVFR]  
VFR VFR VFR VFR VFR VFR VFR VFR VFR
WX -- VCTS
  [TSRA]  
VCTS
  [TSRA]  
VCTS
  [TSRA]  
VCTS
  [TSRA]  
VCTS -- -- -- -- -- -- -- --
WDir 150 100
[100]
100
[100]
100
[100]
100
[100]
100 140 140 140 140 140 140 140 140
WSpd 7 9
  [9]  
9
  [9]  
9
  [9]  
9
  [9]  
9 6 6 6 6 6 6 6 6
WGst -- --
  [--]  
--
  [--]  
--
  [--]  
--
  [--]  
-- -- -- -- -- -- -- -- --
WSHgt -- --
[--]
--
[--]
--
[--]
--
[--]
-- -- -- -- -- -- -- -- --
WSDir -- --
[--]
--
[--]
--
[--]
--
[--]
-- -- -- -- -- -- -- -- --
WSSpd -- --
[--]
--
[--]
--
[--]
--
[--]
-- -- -- -- -- -- -- -- --
R07/25
XWnd -7 -5 -5 -5 -5 -5 -6 -6 -6 -6 -6 -6 -6 -6
XGst -- 0 0 0 0 -- -- -- -- -- -- -- -- --
R16/34
XWnd 1 8 8 8 8 8 2 2 2 2 2 2 2 2
XGst -- 0 0 0 0 -- -- -- -- -- -- -- -- --
Raw TAF
KDAB 212028Z 2120/2218 12009KT P6SM VCTS BKN035CB BKN050
  FM212200 10009KT P6SM VCTS SCT040CB OVC100
  TEMPO 2122/2202 4SM TSRA BKN040CB
  FM220300 14006KT P6SM SCT120 BKN200
  FM221500 15006KT P6SM SCT035 SCT250


Raw METAR
KDAB 212053Z 15007KT 9SM SCT020 OVC130 28/24 A3014 RMK AO2 LTG DSNT NW RAE01 TSE37 SLP204 CB DSNT NW TS MOVD N P0002 60010 T02830244 56014
KDAB 212037Z VRB06KT 10SM SCT020 OVC130 28/24 A3013 RMK AO2 LTG DSNT N AND NW RAE01 TSE37 CB DSNT NW TS MOVD N P0002 T02830239
KDAB 212011Z 12004KT 10SM TS FEW020CB SCT085 OVC110 27/21 A3015 RMK AO2 LTG DSNT N AND NW RAE01 FRQ LTGICCG VC N-NE SE-S TS VC N-NE SE-S MOV NE CB DSNT SW P0002 T02670206
KDAB 211953Z 14006KT 2SM TSRA SCT031CB BKN080 OVC110 23/19 A3015 RMK AO2 LTG DSNT SE AND S RAB31 TSE04B05 SLP209 FRQ LTGICCG TS OHD MOV NE P0008 T02330194
KDAB 211945Z 22005G18KT 2SM TSRA SCT026CB BKN055 OVC110 24/19 A3016 RMK AO2 VIS 1 1/4V3 LTG DSNT SE AND S RAB31 TSE04B05 CONS LTGICCG TS SW MOV NE P0004 T02390189
KDAB 211905Z COR 14005KT 10SM TS SCT029CB SCT033 BKN055 31/24 A3014 RMK AO2 FRQ LTGIC SW MOV NE TS SW MOV NE TSE04B05 T03110244
KDAB 211853Z 11008KT 10SM SCT029 BKN033 BKN048 31/24 A3015 RMK AO2 LTG DSNT S SLP209 T03060244

METAR Board
Radar Display
Forecast Discussion
For situational awareness. Not to be used for flight planning purposes.